Manbij, Syria
Current Conditions -  °F | °C
As of 7:50 PM on Thursday 23 Oct 2014 (Local Time) from LTAJ Reporting Station
Scattered Clouds Scattered Clouds  
Wind Chill: 63°   Ceiling: Unl
Heat Index: 63°   Visibility: 6mi
Dew Point: 45°   Wind: 5mph
Humidity: 52%   Direction: 100°E
Pressure: 30.09"   Gusts: NA
Location:  36.54°N, 37.96°E
Report Text: LTAJ 231650Z 10004KT 9999 SCT040 17/07 Q1019 NOSIG
Loading
Personal Weather Stations






























Interactive Weather Map New forecast layout! Learn more

10-Day Weather Forecast

Advertisements
Track Severe Weather on mobile